Stoney Brook, Minnesota
Current Conditions -  °F | °C
As of 6:17 PM on Sunday 23 Nov 2014 (Local Time) from KCOQ Reporting Station
Light Rain Light Rain  
Wind Chill: 32°   Ceiling: 4100
Heat Index: 37°   Visibility: 4mi
Dew Point: 36°   Wind: 7mph
Humidity: 93%   Direction: 320°NW
Pressure: 29.35"   Gusts: NA
Location:  46.8211°N, 92.6871°W
Report Text: KCOQ 240017Z AUTO 32006KT 4SM -RA BKN041 OVC050 03/02 A2935 RMK AO2
Loading
Personal Weather Stations






























Interactive Weather Map New forecast layout! Learn more

10-Day Weather Forecast

Advertisements
Track Severe Weather on mobile